createdAt,value
2022-12-16T00:01:07.085Z,-8.02
2022-12-16T00:03:36.789Z,-8.19
2022-12-16T00:06:04.948Z,-7.77
2022-12-16T00:08:36.830Z,-7.85
2022-12-16T00:11:05.594Z,-7.77
2022-12-16T00:13:34.754Z,-7.67
2022-12-16T00:16:06.149Z,-7.53
2022-12-16T00:18:33.659Z,-7.30
2022-12-16T00:21:02.538Z,-7.43
2022-12-16T00:23:30.861Z,-8.46
2022-12-16T00:25:58.770Z,-8.04
2022-12-16T00:28:26.356Z,-8.24
2022-12-16T00:30:55.103Z,-7.85
2022-12-16T00:33:24.441Z,-7.75
2022-12-16T00:35:52.384Z,-7.69
2022-12-16T00:38:23.796Z,-7.55
2022-12-16T00:40:52.029Z,-7.45
2022-12-16T00:43:20.613Z,-7.46
2022-12-16T00:45:48.707Z,-7.33
2022-12-16T00:48:16.921Z,-7.44
2022-12-16T00:50:47.087Z,-7.50
2022-12-16T00:53:14.515Z,-7.63
2022-12-16T00:55:43.277Z,-7.51
2022-12-16T00:58:10.731Z,-7.19
2022-12-16T01:00:38.583Z,-7.18
2022-12-16T01:03:06.105Z,-7.21
2022-12-16T01:05:33.641Z,-7.29
2022-12-16T01:08:01.119Z,-7.57
2022-12-16T01:10:28.523Z,-7.76
2022-12-16T01:12:57.304Z,-7.88
2022-12-16T01:15:24.759Z,-7.77
2022-12-16T01:17:52.186Z,-8.77
2022-12-16T01:20:19.663Z,-8.35
2022-12-16T01:22:47.336Z,-8.11
2022-12-16T01:25:15.344Z,-8.05
2022-12-16T01:27:42.767Z,-8.55
2022-12-16T01:30:12.990Z,-8.44
2022-12-16T01:32:40.436Z,-8.41
2022-12-16T01:35:29.429Z,-7.97
2022-12-16T01:37:56.202Z,-8.39
2022-12-16T01:40:25.587Z,-8.34
2022-12-16T01:42:53.027Z,-7.91
2022-12-16T01:45:31.484Z,-8.34
2022-12-16T01:48:00.794Z,-7.86
2022-12-16T01:50:29.879Z,-7.63
2022-12-16T01:52:58.924Z,-7.56
2022-12-16T01:55:29.312Z,-7.54
2022-12-16T01:57:59.356Z,-7.49
2022-12-16T02:00:28.144Z,-7.60
2022-12-16T02:02:56.548Z,-8.48
2022-12-16T02:05:24.369Z,-8.41
2022-12-16T02:07:56.437Z,-8.05
2022-12-16T02:10:40.340Z,-7.97
2022-12-16T02:13:17.998Z,-7.70
2022-12-16T02:15:51.839Z,-7.64
2022-12-16T02:18:24.806Z,-7.57
2022-12-16T02:21:16.915Z,-7.70
2022-12-16T02:24:02.185Z,-7.78
2022-12-16T02:26:49.718Z,-7.76
2022-12-16T02:29:41.691Z,-7.89
2022-12-16T02:32:15.763Z,-7.96
2022-12-16T02:34:50.329Z,-8.44
2022-12-16T02:37:23.553Z,-8.12
2022-12-16T02:39:54.479Z,-8.19
2022-12-16T02:42:27.642Z,-8.19
2022-12-16T02:45:00.555Z,-8.08
2022-12-16T02:47:29.343Z,-8.09
2022-12-16T02:49:57.380Z,-8.26
2022-12-16T02:52:26.547Z,-8.72
2022-12-16T02:54:56.625Z,-8.59
2022-12-16T02:57:43.531Z,-8.63
2022-12-16T03:00:13.641Z,-8.20
2022-12-16T03:02:49.116Z,-8.08
2022-12-16T03:05:21.565Z,-8.05
2022-12-16T03:07:49.912Z,-8.10
2022-12-16T03:10:20.868Z,-8.19
2022-12-16T03:12:48.294Z,-8.24
2022-12-16T03:15:20.343Z,-8.41
2022-12-16T03:17:50.262Z,-8.21
2022-12-16T03:20:19.550Z,-8.19
2022-12-16T03:22:48.809Z,-8.16
2022-12-16T03:25:16.682Z,-8.11
2022-12-16T03:27:50.412Z,-8.00
2022-12-16T03:30:19.174Z,-7.98
2022-12-16T03:32:51.557Z,-7.85
2022-12-16T03:35:21.776Z,-7.84
2022-12-16T03:37:51.438Z,-8.04
2022-12-16T03:40:21.441Z,-7.97
2022-12-16T03:42:49.747Z,-8.03
2022-12-16T03:45:20.399Z,-8.16
2022-12-16T03:47:51.736Z,-8.78
2022-12-16T03:50:21.057Z,-8.65
2022-12-16T03:52:48.479Z,-8.33
2022-12-16T03:55:16.126Z,-8.41
2022-12-16T03:57:43.542Z,-9.06
2022-12-16T04:00:12.500Z,-9.10
2022-12-16T04:02:40.322Z,-9.32
2022-12-16T04:05:10.082Z,-9.05
2022-12-16T04:07:37.553Z,-8.45
2022-12-16T04:10:06.119Z,-8.43
2022-12-16T04:12:51.400Z,-8.41
2022-12-16T04:15:32.977Z,-8.37
2022-12-16T04:18:18.011Z,-8.43
2022-12-16T04:21:06.587Z,-8.68
2022-12-16T04:23:52.285Z,-9.17
2022-12-16T04:26:19.776Z,-9.36
2022-12-16T04:28:47.183Z,-8.89
2022-12-16T04:31:14.753Z,-8.98
2022-12-16T04:33:59.730Z,-8.84
2022-12-16T04:36:46.363Z,-8.98
2022-12-16T04:39:31.256Z,-8.65
2022-12-16T04:42:16.233Z,-8.73
2022-12-16T04:45:01.251Z,-9.00
2022-12-16T04:47:45.974Z,-8.71
2022-12-16T04:50:31.023Z,-8.68
2022-12-16T04:53:17.173Z,-8.51
2022-12-16T04:56:04.346Z,-8.47
2022-12-16T04:58:50.257Z,-8.44
2022-12-16T05:01:35.676Z,-8.38
2022-12-16T05:04:20.671Z,-8.29
2022-12-16T05:07:05.598Z,-8.37
2022-12-16T05:09:52.267Z,-8.19
2022-12-16T05:12:37.017Z,-8.18
2022-12-16T05:15:22.257Z,-8.19
2022-12-16T05:18:07.319Z,-8.07
2022-12-16T05:20:52.622Z,-8.20
2022-12-16T05:23:37.594Z,-8.02
2022-12-16T05:26:24.047Z,-7.95
2022-12-16T05:29:08.730Z,-7.95
2022-12-16T05:31:53.674Z,-8.07
2022-12-16T05:34:38.724Z,-8.17
2022-12-16T05:37:24.064Z,-8.44
2022-12-16T05:40:08.763Z,-8.74
2022-12-16T05:42:55.295Z,-8.35
2022-12-16T05:45:40.441Z,-8.16
2022-12-16T05:48:25.656Z,-8.18
2022-12-16T05:51:10.777Z,-8.26
2022-12-16T05:53:55.753Z,-8.30
2022-12-16T05:56:40.657Z,-8.60
2022-12-16T05:59:27.116Z,-8.65
2022-12-16T06:02:11.973Z,-8.46
2022-12-16T06:04:56.831Z,-8.36
2022-12-16T06:07:41.867Z,-8.51
2022-12-16T06:10:27.676Z,-8.59
2022-12-16T06:13:12.302Z,-8.54
2022-12-16T06:16:06.652Z,-8.52
2022-12-16T06:18:53.471Z,-9.36
2022-12-16T06:21:38.493Z,-9.75
2022-12-16T06:24:23.740Z,-9.70
2022-12-16T06:27:08.587Z,-9.45
2022-12-16T06:29:53.711Z,-9.49
2022-12-16T06:32:40.384Z,-9.25
2022-12-16T06:35:25.991Z,-8.88
2022-12-16T06:38:10.747Z,-8.61
2022-12-16T06:40:56.116Z,-8.47
2022-12-16T06:43:41.164Z,-8.55
2022-12-16T06:46:26.172Z,-8.54
2022-12-16T06:49:12.663Z,-8.58
2022-12-16T06:51:57.666Z,-8.54
2022-12-16T06:54:42.868Z,-8.52
2022-12-16T06:57:27.564Z,-8.31
2022-12-16T07:00:12.571Z,-8.28
2022-12-16T07:02:57.902Z,-8.22
2022-12-16T07:05:44.327Z,-8.30
2022-12-16T07:08:29.276Z,-8.23
2022-12-16T07:11:17.040Z,-8.38
2022-12-16T07:14:02.805Z,-8.53
2022-12-16T07:16:48.177Z,-8.64
2022-12-16T07:19:34.248Z,-8.85
2022-12-16T07:22:20.651Z,-9.18
2022-12-16T07:25:05.608Z,-9.02
2022-12-16T07:27:50.517Z,-8.60
2022-12-16T07:30:35.780Z,-8.41
2022-12-16T07:33:20.691Z,-8.40
2022-12-16T07:36:05.894Z,-8.38
2022-12-16T07:38:52.177Z,-8.41
2022-12-16T07:41:37.381Z,-8.42
2022-12-16T07:44:22.900Z,-8.43
2022-12-16T07:47:21.095Z,-8.43
2022-12-16T07:50:06.292Z,-8.37
2022-12-16T07:52:51.115Z,-8.23
2022-12-16T07:55:37.803Z,-8.22
2022-12-16T07:58:22.584Z,-8.25
2022-12-16T08:01:09.623Z,-8.19
2022-12-16T08:03:54.953Z,-8.12
2022-12-16T08:06:41.052Z,-7.93
2022-12-16T08:09:25.942Z,-7.76
2022-12-16T08:12:12.148Z,-7.65
2022-12-16T08:15:02.522Z,-7.69
2022-12-16T08:17:47.807Z,-7.57
2022-12-16T08:20:32.196Z,-7.37
2022-12-16T08:23:16.979Z,-6.93
2022-12-16T08:26:01.925Z,-6.93
2022-12-16T08:28:48.635Z,-6.55
2022-12-16T08:31:33.904Z,-6.22
2022-12-16T08:34:18.943Z,-6.09
2022-12-16T08:37:15.562Z,-6.16
2022-12-16T08:40:26.081Z,-5.85
2022-12-16T08:43:10.889Z,-5.57
2022-12-16T08:45:58.883Z,-5.43
2022-12-16T08:48:43.740Z,-5.45
2022-12-16T08:51:29.137Z,-5.32
2022-12-16T08:54:14.107Z,-5.21
2022-12-16T08:56:59.669Z,-5.07
2022-12-16T08:59:44.899Z,-5.02
2022-12-16T09:02:31.484Z,-4.85
2022-12-16T09:05:16.603Z,-4.72
2022-12-16T09:08:01.715Z,-4.58
2022-12-16T09:10:47.003Z,-4.73
2022-12-16T09:13:33.854Z,-4.91
2022-12-16T09:16:19.954Z,-4.93
2022-12-16T09:19:06.547Z,-4.80
2022-12-16T09:21:51.833Z,-4.60
2022-12-16T09:24:37.104Z,-4.39
2022-12-16T09:27:22.406Z,-4.19
2022-12-16T09:30:07.477Z,-4.01
2022-12-16T09:32:52.911Z,-3.69
2022-12-16T09:35:39.159Z,-3.53
2022-12-16T09:38:24.147Z,-3.33
2022-12-16T09:41:08.971Z,-3.11
2022-12-16T09:44:02.476Z,-2.95
2022-12-16T09:46:52.421Z,-2.86
2022-12-16T09:49:42.945Z,-2.69
2022-12-16T09:52:33.728Z,-2.53
2022-12-16T09:55:19.308Z,-2.40
2022-12-16T09:58:04.983Z,-2.22
2022-12-16T10:00:49.681Z,-2.07
2022-12-16T10:03:40.673Z,-2.00
2022-12-16T10:06:30.120Z,-1.80
2022-12-16T10:09:17.887Z,-1.64
2022-12-16T10:12:10.682Z,-1.58
2022-12-16T10:15:01.261Z,-1.69
2022-12-16T10:17:46.079Z,-1.86
2022-12-16T10:20:43.663Z,-1.69
2022-12-16T10:23:33.260Z,-1.57
2022-12-16T10:26:23.720Z,-1.47
2022-12-16T10:29:12.480Z,-1.37
2022-12-16T10:31:58.049Z,-1.25
2022-12-16T10:34:47.379Z,-1.30
2022-12-16T10:37:35.236Z,-1.09
2022-12-16T10:40:36.026Z,-0.84
2022-12-16T10:43:25.524Z,-0.66
2022-12-16T10:46:20.363Z,-0.58
2022-12-16T10:49:05.509Z,-0.35
2022-12-16T10:51:50.483Z,-0.47
2022-12-16T10:54:51.746Z,-0.41
2022-12-16T10:57:45.643Z,-0.24
2022-12-16T11:00:34.817Z,-0.37
2022-12-16T11:03:39.074Z,-0.17
2022-12-16T11:06:25.195Z,0.02
2022-12-16T11:09:10.228Z,-0.26
2022-12-16T11:11:55.519Z,-0.02
2022-12-16T11:15:05.405Z,0.19
2022-12-16T11:17:49.485Z,-0.08
2022-12-16T11:20:36.905Z,0.23
2022-12-16T11:23:38.635Z,0.23
2022-12-16T11:26:34.572Z,0.37
2022-12-16T11:29:23.832Z,0.54
2022-12-16T11:32:13.532Z,0.53
2022-12-16T11:35:02.499Z,0.64
2022-12-16T11:37:47.768Z,0.55
2022-12-16T11:40:35.033Z,0.67
2022-12-16T11:43:21.443Z,0.56
2022-12-16T11:46:07.641Z,0.65
2022-12-16T11:48:57.087Z,0.73
2022-12-16T11:51:44.795Z,0.98
2022-12-16T11:54:34.655Z,0.86
2022-12-16T11:57:21.819Z,1.07
2022-12-16T12:00:11.120Z,1.09
2022-12-16T12:03:00.792Z,1.18
2022-12-16T12:05:47.782Z,1.27
2022-12-16T12:08:39.024Z,1.19
2022-12-16T12:11:29.352Z,1.38
2022-12-16T12:14:23.860Z,1.42
2022-12-16T12:17:19.907Z,1.47
2022-12-16T12:20:14.953Z,1.59
2022-12-16T12:23:00.387Z,1.46
2022-12-16T12:26:01.529Z,1.47
2022-12-16T12:28:58.411Z,1.22
2022-12-16T12:31:51.119Z,1.31
2022-12-16T12:34:41.604Z,1.39
2022-12-16T12:37:28.899Z,1.60
2022-12-16T12:40:22.345Z,1.83
2022-12-16T12:43:12.163Z,1.93
2022-12-16T12:46:08.820Z,1.97
2022-12-16T12:49:00.634Z,1.83
2022-12-16T12:51:49.845Z,1.55
2022-12-16T12:54:41.741Z,1.64
2022-12-16T12:57:28.257Z,1.45
2022-12-16T13:00:17.603Z,1.20
2022-12-16T13:03:06.464Z,1.31
2022-12-16T13:05:53.821Z,1.49
2022-12-16T13:09:01.587Z,1.42
2022-12-16T13:11:46.824Z,1.38
2022-12-16T13:15:01.518Z,1.30
2022-12-16T13:17:48.124Z,1.25
2022-12-16T13:20:55.355Z,1.25
2022-12-16T13:23:47.475Z,1.35
2022-12-16T13:26:34.260Z,1.27
2022-12-16T13:29:25.327Z,1.28
2022-12-16T13:32:19.065Z,1.24
2022-12-16T13:35:17.491Z,1.32
2022-12-16T13:38:10.164Z,1.30
2022-12-16T13:41:06.748Z,1.32
2022-12-16T13:44:05.369Z,1.30
2022-12-16T13:47:02.366Z,1.23
2022-12-16T13:49:59.914Z,1.20
2022-12-16T13:52:54.444Z,1.24
2022-12-16T13:55:45.745Z,1.08
2022-12-16T13:58:38.227Z,0.92
2022-12-16T14:01:28.680Z,0.89
2022-12-16T14:04:14.234Z,0.84
2022-12-16T14:07:02.303Z,0.78
2022-12-16T14:09:55.977Z,0.73
2022-12-16T14:13:08.471Z,0.62
2022-12-16T14:15:59.403Z,0.63
2022-12-16T14:18:51.243Z,0.66
2022-12-16T14:21:39.548Z,0.58
2022-12-16T14:24:39.917Z,0.56
2022-12-16T14:27:31.806Z,0.55
2022-12-16T14:30:17.015Z,0.43
2022-12-16T14:33:02.190Z,0.29
2022-12-16T14:35:46.842Z,-0.04
2022-12-16T14:38:39.603Z,-0.18
2022-12-16T14:41:24.629Z,-0.37
2022-12-16T14:44:11.445Z,-0.59
2022-12-16T14:46:56.201Z,-0.62
2022-12-16T14:49:42.776Z,-0.64
2022-12-16T14:52:36.283Z,-0.85
2022-12-16T14:55:30.912Z,-1.09
2022-12-16T14:58:24.683Z,-1.58
2022-12-16T15:01:15.834Z,-1.23
2022-12-16T15:04:03.194Z,-1.28
2022-12-16T15:06:50.603Z,-1.83
2022-12-16T15:09:41.684Z,-1.76
2022-12-16T15:12:27.808Z,-1.71
2022-12-16T15:15:13.636Z,-1.57
2022-12-16T15:18:08.595Z,-1.64
2022-12-16T15:21:01.862Z,-1.90
2022-12-16T15:23:49.683Z,-2.01
2022-12-16T15:26:35.902Z,-2.01
2022-12-16T15:29:21.447Z,-2.03
2022-12-16T15:32:06.514Z,-2.08
2022-12-16T15:34:58.039Z,-2.12
2022-12-16T15:37:47.468Z,-2.29
2022-12-16T15:40:42.326Z,-2.33
2022-12-16T15:43:41.404Z,-2.50
2022-12-16T15:46:36.464Z,-2.57
2022-12-16T15:49:22.093Z,-2.68
2022-12-16T15:52:09.984Z,-2.84
2022-12-16T15:55:09.122Z,-2.92
2022-12-16T15:57:55.047Z,-2.99
2022-12-16T16:00:42.541Z,-3.03
2022-12-16T16:03:38.692Z,-3.03
2022-12-16T16:06:33.527Z,-3.14
2022-12-16T16:09:20.102Z,-3.31
2022-12-16T16:12:05.120Z,-3.30
2022-12-16T16:14:49.991Z,-3.43
2022-12-16T16:17:40.113Z,-3.40
2022-12-16T16:20:28.039Z,-3.68
2022-12-16T16:23:09.480Z,-3.78
2022-12-16T16:26:00.531Z,-3.97
2022-12-16T16:28:48.541Z,-4.09
2022-12-16T16:31:33.381Z,-3.97
2022-12-16T16:34:18.296Z,-4.05
2022-12-16T16:37:03.448Z,-4.27
2022-12-16T16:39:48.747Z,-4.34
2022-12-16T16:42:35.280Z,-4.20
2022-12-16T16:45:20.272Z,-4.09
2022-12-16T16:48:01.866Z,-4.37
2022-12-16T16:50:46.827Z,-4.10
2022-12-16T16:53:34.065Z,-4.16
2022-12-16T16:56:20.297Z,-4.34
2022-12-16T16:59:06.950Z,-4.42
2022-12-16T17:01:51.890Z,-4.30
2022-12-16T17:04:37.015Z,-4.18
2022-12-16T17:07:22.184Z,-4.24
2022-12-16T17:10:07.418Z,-4.23
2022-12-16T17:12:52.232Z,-4.17
2022-12-16T17:15:40.340Z,-4.12
2022-12-16T17:18:25.909Z,-4.15
2022-12-16T17:21:11.556Z,-4.33
2022-12-16T17:23:57.188Z,-4.46
2022-12-16T17:26:42.746Z,-4.63
2022-12-16T17:29:39.249Z,-4.56
2022-12-16T17:32:25.903Z,-4.48
2022-12-16T17:35:11.178Z,-4.48
2022-12-16T17:37:56.718Z,-4.47
2022-12-16T17:40:41.828Z,-4.90
2022-12-16T17:43:27.055Z,-4.64
2022-12-16T17:46:16.699Z,-4.74
2022-12-16T17:49:03.133Z,-4.88
2022-12-16T17:51:48.307Z,-5.93
2022-12-16T17:54:33.675Z,-5.66
2022-12-16T17:57:18.622Z,-5.87
2022-12-16T18:00:03.905Z,-5.91
2022-12-16T18:05:07.938Z,-5.38
2022-12-16T18:07:53.006Z,-5.15
2022-12-16T18:10:38.148Z,-5.28
2022-12-16T18:13:22.971Z,-5.14
2022-12-16T18:16:10.782Z,-4.99
2022-12-16T18:18:55.973Z,-5.01
2022-12-16T18:21:42.457Z,-5.02
2022-12-16T18:24:28.067Z,-5.00
2022-12-16T18:27:12.980Z,-4.99
2022-12-16T18:29:58.374Z,-4.98
2022-12-16T18:32:43.490Z,-5.23
2022-12-16T18:35:28.380Z,-5.52
2022-12-16T18:38:16.532Z,-5.57
2022-12-16T18:41:04.999Z,-5.46
2022-12-16T18:43:49.884Z,-5.26
2022-12-16T18:46:34.603Z,-5.21
2022-12-16T18:49:19.490Z,-5.55
2022-12-16T18:52:04.520Z,-5.59
2022-12-16T18:54:51.096Z,-5.44
2022-12-16T18:57:39.632Z,-5.41
2022-12-16T19:00:26.520Z,-5.36
2022-12-16T19:03:11.417Z,-5.39
2022-12-16T19:05:56.599Z,-5.39
2022-12-16T19:08:41.596Z,-5.53
2022-12-16T19:11:42.670Z,-5.63
2022-12-16T19:14:27.501Z,-5.60
2022-12-16T19:17:12.472Z,-5.57
2022-12-16T19:19:57.531Z,-5.84
2022-12-16T19:22:42.490Z,-5.60
2022-12-16T19:25:28.024Z,-5.45
2022-12-16T19:28:14.674Z,-5.35
2022-12-16T19:30:59.805Z,-5.41
2022-12-16T19:33:44.863Z,-5.59
2022-12-16T19:36:30.324Z,-5.74
2022-12-16T19:39:15.572Z,-5.82
2022-12-16T19:42:00.589Z,-5.72
2022-12-16T19:44:47.221Z,-5.57
2022-12-16T19:47:31.957Z,-5.73
2022-12-16T19:50:17.158Z,-5.64
2022-12-16T19:53:02.113Z,-5.54
2022-12-16T19:55:46.828Z,-5.58
2022-12-16T19:58:37.702Z,-5.53
2022-12-16T20:01:27.984Z,-5.58
2022-12-16T20:04:13.804Z,-5.74
2022-12-16T20:06:58.930Z,-5.69
2022-12-16T20:09:46.390Z,-5.67
2022-12-16T20:12:31.471Z,-5.84
2022-12-16T20:15:16.529Z,-5.83
2022-12-16T20:18:03.187Z,-5.66
2022-12-16T20:20:47.874Z,-5.65
2022-12-16T20:23:32.894Z,-5.72
2022-12-16T20:26:19.487Z,-5.76
2022-12-16T20:29:04.504Z,-5.72
2022-12-16T20:31:50.294Z,-5.71
2022-12-16T20:34:36.747Z,-5.68
2022-12-16T20:37:22.201Z,-5.85
2022-12-16T20:40:07.177Z,-5.85
2022-12-16T20:42:53.347Z,-6.01
2022-12-16T20:45:39.052Z,-5.96
2022-12-16T20:48:24.483Z,-6.00
2022-12-16T20:51:16.806Z,-6.09
2022-12-16T20:54:06.467Z,-6.23
2022-12-16T20:56:51.916Z,-6.30
2022-12-16T20:59:38.159Z,-6.08
2022-12-16T21:05:29.061Z,-6.01
2022-12-16T21:08:15.735Z,-6.22
2022-12-16T21:11:15.428Z,-6.12
2022-12-16T21:14:02.533Z,-6.05
2022-12-16T21:16:48.852Z,-5.97
2022-12-16T21:19:34.228Z,-5.94
2022-12-16T21:22:19.147Z,-5.97
2022-12-16T21:25:05.515Z,-5.99
2022-12-16T21:27:50.872Z,-5.86
2022-12-16T21:30:41.248Z,-5.89
2022-12-16T21:33:34.406Z,-5.84
2022-12-16T21:36:19.673Z,-6.02
2022-12-16T21:39:04.747Z,-6.04
2022-12-16T21:41:59.864Z,-5.94
2022-12-16T21:44:44.823Z,-5.94
2022-12-16T21:47:29.939Z,-5.83
2022-12-16T21:50:15.095Z,-5.91
2022-12-16T21:53:00.132Z,-5.90
2022-12-16T21:55:50.545Z,-5.86
2022-12-16T21:58:37.387Z,-5.77
2022-12-16T22:01:22.680Z,-5.63
2022-12-16T22:04:10.045Z,-5.66
2022-12-16T22:06:55.148Z,-5.65
2022-12-16T22:09:40.364Z,-5.56
2022-12-16T22:12:34.066Z,-5.48
2022-12-16T22:15:20.687Z,-5.60
2022-12-16T22:18:05.796Z,-5.60
2022-12-16T22:20:51.812Z,-5.70
2022-12-16T22:23:37.524Z,-5.87
2022-12-16T22:26:22.769Z,-5.70
2022-12-16T22:29:10.275Z,-5.64
2022-12-16T22:31:56.697Z,-5.57
2022-12-16T22:34:41.768Z,-5.60
2022-12-16T22:37:29.599Z,-5.56
2022-12-16T22:40:15.099Z,-5.57
2022-12-16T22:43:00.348Z,-5.49
2022-12-16T22:45:45.432Z,-5.48
2022-12-16T22:48:31.603Z,-5.49
2022-12-16T22:51:16.616Z,-5.45
2022-12-16T22:54:01.635Z,-5.50
2022-12-16T22:56:46.419Z,-5.45
2022-12-16T22:59:31.221Z,-5.38
2022-12-16T23:02:16.121Z,-5.37
2022-12-16T23:05:02.620Z,-5.21
2022-12-16T23:07:47.711Z,-5.19
2022-12-16T23:10:35.273Z,-5.02
2022-12-16T23:13:20.315Z,-4.88
2022-12-16T23:16:21.915Z,-4.76
2022-12-16T23:19:12.545Z,-4.64
2022-12-16T23:21:59.303Z,-4.36
2022-12-16T23:24:44.434Z,-4.24
2022-12-16T23:27:29.569Z,-4.05
2022-12-16T23:30:14.574Z,-4.17
2022-12-16T23:33:11.202Z,-3.98
2022-12-16T23:35:56.170Z,-3.90
2022-12-16T23:38:42.659Z,-3.76
2022-12-16T23:41:27.974Z,-3.71
2022-12-16T23:44:12.670Z,-3.76
2022-12-16T23:46:57.925Z,-3.49
2022-12-16T23:49:43.136Z,-3.47
2022-12-16T23:52:28.378Z,-3.24
2022-12-16T23:55:15.109Z,-3.20
2022-12-16T23:58:29.572Z,-3.37
